Time;durP1;ratioP1;P1;durP2;ratioP2;P2;SDS_P1;SDS_P2;PMS_P1;PMS_P2;Temp;Humidity;BMP_temperature;BMP_pressure;BME280_temperature;BME280_humidity;BME280_pressure;Samples;Min_cycle;Max_cycle;Signal;HPM_P1;HPM_P2
2023/07/01 00:04:33;;;;;;;3.83;3.53;;;21.10;99.90;;;;;;10365173;28;20214;-78
2023/07/01 00:09:35;;;;;;;4.20;3.83;;;21.10;99.90;;;;;;10381600;28;20690;-78
2023/07/01 00:14:44;;;;;;;4.30;4.00;;;21.00;99.90;;;;;;10383110;28;20624;-78
2023/07/01 00:19:47;;;;;;;4.20;3.90;;;20.90;99.90;;;;;;10364085;28;20628;-79
2023/07/01 00:24:49;;;;;;;3.80;3.60;;;20.80;99.90;;;;;;10381954;28;20219;-78
2023/07/01 00:29:51;;;;;;;4.43;4.13;;;20.80;99.90;;;;;;10380470;28;20231;-78
2023/07/01 00:34:55;;;;;;;4.40;4.00;;;20.60;99.90;;;;;;10378179;28;20191;-78
2023/07/01 00:39:57;;;;;;;4.20;3.90;;;20.60;99.90;;;;;;10376406;28;20215;-78
2023/07/01 00:44:59;;;;;;;4.30;4.00;;;20.40;99.90;;;;;;10379449;28;20206;-78
2023/07/01 00:50:04;;;;;;;3.80;3.50;;;20.40;99.90;;;;;;10381601;28;20615;-78
2023/07/01 00:55:08;;;;;;;3.70;3.30;;;20.30;99.90;;;;;;10363560;28;20583;-78
2023/07/01 01:00:12;;;;;;;3.60;3.40;;;20.20;99.90;;;;;;10361461;28;20231;-77
2023/07/01 01:05:23;;;;;;;3.67;3.37;;;20.20;99.90;;;;;;10377070;28;20281;-78
2023/07/01 01:10:27;;;;;;;3.80;3.60;;;20.00;99.90;;;;;;10361858;28;20230;-78
2023/07/01 01:15:29;;;;;;;3.77;3.57;;;20.00;99.90;;;;;;10381690;28;20571;-78
2023/07/01 01:20:34;;;;;;;3.80;3.53;;;19.90;99.90;;;;;;10364008;28;20286;-78
2023/07/01 01:25:43;;;;;;;4.30;3.77;;;19.80;99.90;;;;;;10383008;28;20207;-78
2023/07/01 01:30:48;;;;;;;3.77;3.47;;;19.80;99.90;;;;;;10363262;28;20235;-78
2023/07/01 01:35:50;;;;;;;3.57;3.37;;;19.80;99.90;;;;;;10382760;28;20199;-78
2023/07/01 01:40:57;;;;;;;3.50;3.30;;;19.80;99.90;;;;;;10382806;28;20219;-77
2023/07/01 01:46:02;;;;;;;4.23;3.80;;;19.70;99.90;;;;;;10377382;28;20203;-78
2023/07/01 01:51:05;;;;;;;3.57;3.27;;;19.70;99.90;;;;;;10378255;28;20238;-78
2023/07/01 01:56:08;;;;;;;6.50;3.47;;;19.70;99.90;;;;;;10365478;28;20214;-78
2023/07/01 02:01:11;;;;;;;3.57;3.37;;;19.60;99.90;;;;;;10384955;28;20670;-78
2023/07/01 02:06:13;;;;;;;4.00;3.80;;;19.60;99.90;;;;;;10375628;28;20253;-78
2023/07/01 02:11:15;;;;;;;3.90;3.67;;;19.60;99.90;;;;;;10377327;28;20287;-78
2023/07/01 02:16:19;;;;;;;3.70;3.50;;;19.60;99.90;;;;;;10363368;28;20227;-78
2023/07/01 02:21:21;;;;;;;4.43;3.97;;;19.50;99.90;;;;;;10382151;28;20635;-78
2023/07/01 02:26:24;;;;;;;3.90;3.60;;;19.50;99.90;;;;;;10365583;28;20203;-77
2023/07/01 02:31:27;;;;;;;4.10;3.80;;;19.50;99.90;;;;;;10349555;28;20231;-78
2023/07/01 02:36:29;;;;;;;4.00;3.80;;;19.40;99.90;;;;;;10381652;28;20605;-78
2023/07/01 02:41:32;;;;;;;3.97;3.73;;;19.40;99.90;;;;;;10381547;28;20306;-78
2023/07/01 02:46:35;;;;;;;5.93;4.67;;;19.40;99.90;;;;;;10381873;28;20200;-78
2023/07/01 02:51:37;;;;;;;4.40;4.10;;;19.30;99.90;;;;;;10381047;28;20281;-77
2023/07/01 02:56:39;;;;;;;3.97;3.70;;;19.30;99.90;;;;;;10362822;28;20207;-77
2023/07/01 03:01:44;;;;;;;4.93;4.40;;;19.30;99.90;;;;;;10394620;28;20234;-78
2023/07/01 03:06:46;;;;;;;5.40;4.87;;;19.30;99.90;;;;;;10379569;28;20231;-77
2023/07/01 03:11:48;;;;;;;4.60;4.30;;;19.30;99.90;;;;;;10380585;28;20302;-77
2023/07/01 03:16:53;;;;;;;5.43;4.60;;;19.20;99.90;;;;;;10381153;28;20196;-78
2023/07/01 03:21:55;;;;;;;4.70;4.40;;;19.20;99.90;;;;;;10378192;28;20298;-78
2023/07/01 03:26:58;;;;;;;4.33;4.10;;;19.20;99.90;;;;;;10379182;28;20250;-78
2023/07/01 03:32:03;;;;;;;4.13;3.83;;;19.20;99.90;;;;;;10382918;28;20603;-78
2023/07/01 03:37:06;;;;;;;4.00;3.70;;;19.10;99.90;;;;;;10393010;28;20884;-78
2023/07/01 03:42:08;;;;;;;5.03;4.30;;;19.10;99.90;;;;;;10392482;28;20342;-78
2023/07/01 03:47:13;;;;;;;4.73;4.40;;;19.00;99.90;;;;;;10395278;28;20207;-78
2023/07/01 03:52:15;;;;;;;3.90;3.70;;;19.00;99.90;;;;;;10378076;28;20230;-78
2023/07/01 03:57:17;;;;;;;4.33;3.80;;;19.00;99.90;;;;;;10393949;28;20679;-78
2023/07/01 04:02:20;;;;;;;3.83;3.63;;;19.00;99.90;;;;;;10376852;28;20246;-78
2023/07/01 04:07:23;;;;;;;4.07;3.87;;;19.10;99.90;;;;;;10394757;28;20214;-78
2023/07/01 04:12:25;;;;;;;3.93;3.63;;;19.10;99.90;;;;;;10389561;28;20234;-78
2023/07/01 04:17:30;;;;;;;4.70;4.40;;;19.10;99.90;;;;;;10384250;28;20691;-78
2023/07/01 04:22:32;;;;;;;4.67;4.30;;;19.20;99.90;;;;;;10384244;28;20298;-78
2023/07/01 04:27:35;;;;;;;4.10;3.80;;;19.20;99.90;;;;;;10384027;28;20222;-78
2023/07/01 04:32:38;;;;;;;4.10;3.80;;;19.10;99.90;;;;;;10383716;28;20241;-78
2023/07/01 04:37:41;;;;;;;4.53;4.30;;;19.20;99.90;;;;;;10383475;28;20230;-78
2023/07/01 04:42:49;;;;;;;3.83;3.63;;;19.20;99.90;;;;;;10380805;28;20226;-78
2023/07/01 04:47:53;;;;;;;4.30;4.00;;;19.30;99.90;;;;;;10382120;28;20199;-78
2023/07/01 04:52:55;;;;;;;4.00;3.70;;;19.30;99.90;;;;;;10381850;28;20215;-78
2023/07/01 04:57:57;;;;;;;4.40;4.07;;;19.40;99.90;;;;;;10353990;28;20249;-78
2023/07/01 05:03:01;;;;;;;4.03;3.73;;;19.40;99.90;;;;;;10457966;23;20348;-82
2023/07/01 05:08:03;;;;;;;3.40;3.20;;;19.40;99.90;;;;;;10491780;28;20197;-83
2023/07/01 05:13:05;;;;;;;3.70;3.50;;;19.40;99.90;;;;;;10505558;28;20343;-83
2023/07/01 05:18:11;;;;;;;3.90;3.70;;;19.40;99.90;;;;;;10484013;28;20208;-82
2023/07/01 05:23:14;;;;;;;3.80;3.50;;;19.50;99.90;;;;;;10485804;28;20224;-83
2023/07/01 05:28:16;;;;;;;4.40;4.00;;;19.50;99.90;;;;;;10505097;28;20205;-83
2023/07/01 05:33:20;;;;;;;3.30;3.10;;;19.60;99.90;;;;;;10487989;28;20233;-83
2023/07/01 05:38:22;;;;;;;3.30;3.10;;;19.70;99.90;;;;;;10487436;28;20204;-84
2023/07/01 05:43:24;;;;;;;4.10;3.77;;;19.80;99.90;;;;;;10507371;28;20213;-84
2023/07/01 05:48:27;;;;;;;3.70;3.40;;;19.90;99.90;;;;;;10476290;28;20197;-83
2023/07/01 05:53:29;;;;;;;3.77;3.47;;;20.00;99.90;;;;;;10497217;28;20217;-83
2023/07/01 05:58:31;;;;;;;4.20;3.80;;;20.00;99.90;;;;;;10498679;28;20223;-80
2023/07/01 06:03:35;;;;;;;3.87;3.57;;;20.10;99.90;;;;;;10528958;28;20225;-82
2023/07/01 06:08:37;;;;;;;3.60;3.40;;;20.20;99.90;;;;;;10512693;28;20634;-84
2023/07/01 06:13:45;;;;;;;3.43;3.13;;;20.20;99.90;;;;;;10512394;28;20233;-84
2023/07/01 06:18:48;;;;;;;3.30;3.10;;;20.40;99.90;;;;;;10507628;28;20201;-84
2023/07/01 06:23:56;;;;;;;3.67;3.33;;;20.50;99.90;;;;;;10509779;28;20213;-83
2023/07/01 06:28:58;;;;;;;3.13;2.83;;;20.60;99.90;;;;;;10494717;28;20676;-83
2023/07/01 06:34:01;;;;;;;8.53;7.93;;;20.60;99.90;;;;;;10495303;28;20255;-83
2023/07/01 06:39:04;;;;;;;6.20;3.43;;;20.80;99.90;;;;;;10491914;28;20702;-83
2023/07/01 06:44:06;;;;;;;2.87;2.67;;;20.90;99.90;;;;;;10500435;28;20217;-81
2023/07/01 06:49:12;;;;;;;2.73;2.53;;;21.10;99.90;;;;;;10500105;28;20209;-83
2023/07/01 06:54:24;;;;;;;2.53;2.43;;;21.40;99.90;;;;;;10504953;28;20316;-81
2023/07/01 06:59:27;;;;;;;3.00;2.80;;;21.70;99.90;;;;;;10511629;28;20259;-84
2023/07/01 07:04:30;;;;;;;2.97;2.77;;;22.00;99.90;;;;;;10511735;28;20236;-82
2023/07/01 07:09:32;;;;;;;2.37;2.20;;;22.30;99.40;;;;;;10495651;28;20208;-83
2023/07/01 07:14:34;;;;;;;2.60;2.40;;;22.50;98.60;;;;;;10513526;28;20217;-84
2023/07/01 07:19:42;;;;;;;4.90;2.80;;;22.80;97.30;;;;;;10511477;28;20201;-83
2023/07/01 07:24:44;;;;;;;3.03;2.80;;;23.10;96.30;;;;;;10495220;28;20196;-84
2023/07/01 07:29:46;;;;;;;2.33;2.13;;;23.50;96.20;;;;;;10494675;28;20619;-84
2023/07/01 07:34:50;;;;;;;2.50;2.30;;;23.90;94.20;;;;;;10479335;28;20193;-83
2023/07/01 07:39:53;;;;;;;2.60;2.07;;;24.40;92.90;;;;;;10512328;28;20230;-85
2023/07/01 07:44:55;;;;;;;2.40;2.20;;;24.80;91.10;;;;;;10494022;28;20288;-84
2023/07/01 07:49:58;;;;;;;2.60;2.40;;;25.60;89.40;;;;;;10508425;28;20244;-81
2023/07/01 07:55:01;;;;;;;2.27;2.07;;;26.10;89.30;;;;;;10509379;28;20292;-83
2023/07/01 08:00:03;;;;;;;2.20;2.10;;;26.60;84.50;;;;;;10508518;28;20581;-84
2023/07/01 08:05:18;;;;;;;3.63;2.23;;;26.90;81.30;;;;;;10488652;28;20205;-85
2023/07/01 08:10:20;;;;;;;2.70;2.40;;;27.10;80.50;;;;;;10505514;28;20260;-84
2023/07/01 08:15:22;;;;;;;2.60;2.40;;;27.30;79.30;;;;;;10510094;28;20200;-81
2023/07/01 08:20:26;;;;;;;2.60;2.40;;;27.60;78.10;;;;;;10486510;28;20579;-83
2023/07/01 08:25:28;;;;;;;2.73;2.43;;;27.80;74.50;;;;;;10503506;28;20274;-84
2023/07/01 08:30:30;;;;;;;2.43;2.10;;;27.90;75.30;;;;;;10499993;28;20217;-85
2023/07/01 08:35:33;;;;;;;3.67;2.53;;;28.00;70.10;;;;;;10528100;28;20268;-84
2023/07/01 08:40:36;;;;;;;3.47;3.13;;;27.80;70.90;;;;;;10504868;28;20280;-84
2023/07/01 08:45:40;;;;;;;2.80;2.53;;;27.40;70.40;;;;;;10497774;28;20259;-84
2023/07/01 08:50:53;;;;;;;3.37;3.07;;;26.90;72.80;;;;;;10498423;28;20765;-84
2023/07/01 08:55:56;;;;;;;2.67;2.47;;;26.90;73.30;;;;;;10499218;28;20216;-84
2023/07/01 09:00:59;;;;;;;2.87;2.40;;;27.10;73.70;;;;;;10496597;28;20225;-84
2023/07/01 09:06:03;;;;;;;2.47;2.27;;;27.60;75.30;;;;;;10508038;28;20193;-85
2023/07/01 09:11:05;;;;;;;2.20;2.00;;;27.90;71.80;;;;;;10495345;28;20692;-83
2023/07/01 09:16:07;;;;;;;2.37;2.20;;;28.50;65.80;;;;;;10476910;28;20201;-83
2023/07/01 09:21:19;;;;;;;2.13;2.03;;;29.00;65.00;;;;;;10495558;28;20213;-85
2023/07/01 09:26:21;;;;;;;2.30;2.20;;;29.40;66.00;;;;;;10499655;28;20587;-83
2023/07/01 09:31:24;;;;;;;2.20;2.10;;;29.80;60.60;;;;;;10500661;28;20224;-84
2023/07/01 09:36:28;;;;;;;1.90;1.80;;;30.20;62.10;;;;;;10520966;28;20225;-84
2023/07/01 09:41:30;;;;;;;2.03;1.83;;;30.80;56.30;;;;;;10484600;28;20221;-83
2023/07/01 09:46:43;;;;;;;2.10;1.97;;;31.40;56.20;;;;;;10503062;28;20197;-86
2023/07/01 09:51:49;;;;;;;2.07;1.97;;;32.00;54.40;;;;;;10484808;28;20216;-84
2023/07/01 09:56:52;;;;;;;1.97;1.87;;;32.40;54.90;;;;;;10501978;28;20476;-85
2023/07/01 10:01:55;;;;;;;2.40;2.20;;;33.10;51.30;;;;;;10506535;28;20224;-85
2023/07/01 10:06:59;;;;;;;2.80;2.63;;;33.60;51.50;;;;;;10509903;28;20232;-84
2023/07/01 10:12:04;;;;;;;2.72;2.53;;;34.40;48.50;;;;;;10482972;28;20314;-85
2023/07/01 10:17:06;;;;;;;2.10;1.90;;;35.70;48.30;;;;;;10501290;28;20250;-84
2023/07/01 10:22:29;;;;;;;1.90;1.80;;;36.70;44.50;;;;;;10499847;28;20220;-86
2023/07/01 10:28:05;;;;;;;2.45;2.25;;;37.30;43.40;;;;;;10501163;28;20200;-86
2023/07/01 10:33:53;;;;;;;2.50;2.30;;;36.00;43.00;;;;;;10488972;28;20259;-86
2023/07/01 10:39:25;;;;;;;3.10;2.40;;;33.80;44.20;;;;;;10501069;28;20196;-84
2023/07/01 10:44:28;;;;;;;3.60;2.93;;;32.10;44.30;;;;;;10500050;28;20213;-83
2023/07/01 10:49:30;;;;;;;3.77;2.60;;;30.90;47.20;;;;;;10482684;28;20200;-83
2023/07/01 10:54:35;;;;;;;2.73;2.53;;;30.20;49.90;;;;;;10501690;28;20248;-84
2023/07/01 10:59:38;;;;;;;2.40;2.20;;;29.90;50.00;;;;;;10484491;28;20434;-82
2023/07/01 11:05:11;;;;;;;2.93;2.77;;;29.80;51.70;;;;;;10504596;28;20194;-84
2023/07/01 11:10:13;;;;;;;3.10;2.90;;;29.80;49.20;;;;;;10424430;28;20209;-82
2023/07/01 11:15:22;;;;;;;2.70;2.50;;;29.50;49.60;;;;;;10512240;28;20201;-83
2023/07/01 11:20:24;;;;;;;4.97;3.53;;;29.30;48.80;;;;;;10483393;28;20216;-83
2023/07/01 11:25:27;;;;;;;3.50;3.20;;;29.00;50.40;;;;;;10482093;28;20595;-81
2023/07/01 11:30:31;;;;;;;3.67;3.27;;;28.80;50.80;;;;;;10499053;28;20237;-83
2023/07/01 11:35:49;;;;;;;2.60;2.40;;;28.60;51.20;;;;;;10499520;28;20518;-84
2023/07/01 11:40:51;;;;;;;4.70;2.53;;;28.30;53.00;;;;;;10481236;28;20209;-82
2023/07/01 11:45:55;;;;;;;2.50;2.30;;;28.30;53.10;;;;;;10480812;28;20193;-83
2023/07/01 11:50:57;;;;;;;2.83;2.63;;;28.30;51.00;;;;;;10493845;28;20715;-81
2023/07/01 11:56:02;;;;;;;2.43;2.23;;;28.00;52.80;;;;;;10497724;28;20213;-82
2023/07/01 12:01:23;;;;;;;5.10;3.10;;;28.00;53.50;;;;;;10465230;28;20237;-84
2023/07/01 12:06:26;;;;;;;3.03;2.80;;;28.00;53.20;;;;;;10498186;28;20232;-83
2023/07/01 12:11:28;;;;;;;2.97;2.77;;;28.10;53.80;;;;;;10499255;28;20282;-83
2023/07/01 12:16:43;;;;;;;3.80;2.60;;;28.00;53.30;;;;;;10500982;28;20197;-82
2023/07/01 12:21:46;;;;;;;3.50;2.83;;;27.90;53.50;;;;;;10484861;28;20216;-82
2023/07/01 12:26:49;;;;;;;2.60;2.40;;;27.60;53.90;;;;;;10480964;28;20201;-83
2023/07/01 12:31:54;;;;;;;3.63;2.93;;;27.50;55.30;;;;;;10505234;28;20244;-83
2023/07/01 12:36:56;;;;;;;2.77;2.57;;;27.20;56.00;;;;;;10480793;28;20244;-81
2023/07/01 12:41:59;;;;;;;2.27;2.07;;;27.10;55.40;;;;;;10498255;28;20251;-83
2023/07/01 12:47:07;;;;;;;2.83;2.30;;;26.90;56.30;;;;;;10498155;28;20245;-83
2023/07/01 12:52:09;;;;;;;2.50;2.30;;;26.80;57.20;;;;;;10498912;28;20456;-82
2023/07/01 12:57:12;;;;;;;2.47;2.27;;;26.70;57.40;;;;;;10480820;28;20455;-83
2023/07/01 13:02:16;;;;;;;2.27;2.10;;;26.60;58.30;;;;;;10480239;28;20599;-83
2023/07/01 13:07:18;;;;;;;3.93;2.87;;;26.50;58.50;;;;;;10482126;28;20212;-82
2023/07/01 13:12:22;;;;;;;2.70;2.50;;;26.40;57.10;;;;;;10505240;28;20236;-82
2023/07/01 13:17:35;;;;;;;2.43;2.23;;;26.20;56.50;;;;;;10501446;28;20193;-82
2023/07/01 13:22:37;;;;;;;2.93;2.50;;;25.90;59.50;;;;;;10499268;28;20270;-81
2023/07/01 13:27:41;;;;;;;2.30;2.10;;;25.90;61.40;;;;;;10480877;28;20239;-83
2023/07/01 13:32:45;;;;;;;2.07;1.97;;;25.90;60.60;;;;;;10498769;28;20217;-83
2023/07/01 13:37:47;;;;;;;2.00;1.73;;;26.00;62.20;;;;;;10480040;28;20205;-82
2023/07/01 13:42:49;;;;;;;1.57;1.47;;;26.10;64.00;;;;;;10478122;28;20217;-84
2023/07/01 13:47:55;;;;;;;1.93;1.83;;;26.00;60.60;;;;;;10502162;28;20202;-83
2023/07/01 13:53:00;;;;;;;2.00;1.90;;;26.00;63.70;;;;;;10477456;28;20229;-85
2023/07/01 13:58:02;;;;;;;2.13;2.03;;;26.00;62.30;;;;;;10494949;28;20197;-84
2023/07/01 14:03:08;;;;;;;1.90;1.60;;;26.00;61.40;;;;;;10463138;28;20253;-81
2023/07/01 14:08:11;;;;;;;1.80;1.70;;;25.70;62.00;;;;;;10478492;28;20198;-84
2023/07/01 14:13:15;;;;;;;2.00;1.90;;;25.50;61.90;;;;;;10500682;28;20594;-84
2023/07/01 14:18:27;;;;;;;2.27;2.07;;;25.30;64.10;;;;;;10505682;28;20236;-83
2023/07/01 14:23:33;;;;;;;1.90;1.80;;;25.40;66.30;;;;;;10514096;28;20279;-82
2023/07/01 14:28:35;;;;;;;1.90;1.80;;;25.50;67.50;;;;;;10484331;28;20200;-82
2023/07/01 14:33:40;;;;;;;1.90;1.80;;;25.60;66.20;;;;;;10501980;28;20275;-83
2023/07/01 14:38:45;;;;;;;1.80;1.70;;;25.80;66.90;;;;;;10484365;28;20228;-84
2023/07/01 14:43:49;;;;;;;2.20;2.00;;;25.90;64.40;;;;;;10485447;28;20220;-84
2023/07/01 14:48:53;;;;;;;1.83;1.73;;;25.90;65.10;;;;;;10502964;28;20200;-82
2023/07/01 14:53:56;;;;;;;1.70;1.60;;;26.00;63.60;;;;;;10505041;28;20696;-84
2023/07/01 14:58:58;;;;;;;1.57;1.47;;;25.90;62.70;;;;;;10487709;28;20231;-84
2023/07/01 15:04:01;;;;;;;1.83;1.73;;;25.80;64.60;;;;;;10475755;28;20221;-84
2023/07/01 15:09:03;;;;;;;2.10;1.50;;;25.80;64.80;;;;;;10504978;28;20653;-82
2023/07/01 15:14:06;;;;;;;2.00;1.90;;;25.80;65.80;;;;;;10486660;28;20228;-85
2023/07/01 15:19:09;;;;;;;2.13;2.00;;;25.70;64.80;;;;;;10491047;28;20564;-83
2023/07/01 15:24:11;;;;;;;2.07;1.60;;;25.70;64.40;;;;;;10488406;28;20217;-82
2023/07/01 15:29:13;;;;;;;1.80;1.70;;;25.60;66.00;;;;;;10498013;28;20201;-83
2023/07/01 15:34:17;;;;;;;1.40;1.30;;;25.50;67.70;;;;;;10502943;28;20343;-83
2023/07/01 15:39:19;;;;;;;1.30;1.20;;;25.40;67.20;;;;;;10499161;28;20228;-84
2023/07/01 15:44:21;;;;;;;1.70;1.60;;;25.30;69.80;;;;;;10501519;28;20228;-84
2023/07/01 15:49:26;;;;;;;1.53;1.43;;;25.10;71.40;;;;;;10495216;28;20201;-83
2023/07/01 15:54:31;;;;;;;1.70;1.60;;;25.00;72.70;;;;;;10485940;28;20688;-83
2023/07/01 15:59:34;;;;;;;2.40;1.83;;;24.80;72.90;;;;;;10500070;28;20633;-82
2023/07/01 16:04:38;;;;;;;1.83;1.73;;;24.70;73.70;;;;;;10502280;28;20264;-84
2023/07/01 16:10:07;;;;;;;1.40;1.30;;;24.60;74.70;;;;;;10497299;28;20312;-83
2023/07/01 16:15:14;;;;;;;1.90;1.80;;;24.50;76.10;;;;;;10463280;28;20312;-82
2023/07/01 16:20:55;;;;;;;1.70;1.60;;;24.40;76.80;;;;;;10508998;28;20225;-85
2023/07/01 16:25:57;;;;;;;2.10;2.00;;;24.30;81.00;;;;;;10479995;28;20637;-84
2023/07/01 16:30:59;;;;;;;1.93;1.83;;;24.20;85.40;;;;;;10496757;28;20228;-82
2023/07/01 16:36:24;;;;;;;2.30;2.10;;;23.90;86.90;;;;;;10502499;28;20217;-82
2023/07/01 16:41:28;;;;;;;2.73;2.07;;;23.80;89.80;;;;;;10474764;28;20233;-84
2023/07/01 16:46:33;;;;;;;2.40;2.30;;;23.70;89.60;;;;;;10498340;28;20309;-83
2023/07/01 16:51:38;;;;;;;2.20;2.00;;;23.60;89.60;;;;;;10498547;28;20228;-84
2023/07/01 16:56:48;;;;;;;2.00;1.90;;;23.60;90.10;;;;;;10498546;28;20209;-82
2023/07/01 17:01:50;;;;;;;2.10;1.90;;;23.50;90.20;;;;;;10483545;28;20236;-84
2023/07/01 17:06:54;;;;;;;2.20;2.00;;;23.50;90.80;;;;;;10498369;28;20193;-84
2023/07/01 17:11:58;;;;;;;2.30;2.20;;;23.40;90.80;;;;;;10479745;28;20225;-83
2023/07/01 17:17:00;;;;;;;2.20;2.03;;;23.50;90.50;;;;;;10496921;28;20312;-84
2023/07/01 17:22:04;;;;;;;2.23;2.13;;;23.50;88.10;;;;;;10497879;28;20217;-84
2023/07/01 17:27:06;;;;;;;2.40;2.30;;;23.40;88.90;;;;;;10464003;28;20287;-80
2023/07/01 17:32:09;;;;;;;2.37;2.17;;;23.30;89.80;;;;;;10499083;28;20416;-83
2023/07/01 17:37:12;;;;;;;2.53;2.33;;;23.20;90.20;;;;;;10497805;28;20254;-83
2023/07/01 17:42:14;;;;;;;2.23;2.10;;;23.20;91.20;;;;;;10496287;28;20232;-83
2023/07/01 17:47:17;;;;;;;2.47;2.33;;;23.20;92.40;;;;;;10480336;28;20379;-83
2023/07/01 17:52:21;;;;;;;3.00;2.80;;;23.20;92.80;;;;;;10502250;28;20225;-84
2023/07/01 17:57:23;;;;;;;2.23;2.13;;;23.10;93.10;;;;;;10508533;28;20205;-84
2023/07/01 18:02:25;;;;;;;2.97;2.87;;;23.10;92.80;;;;;;10505686;28;20233;-84
2023/07/01 18:07:29;;;;;;;2.33;2.20;;;23.00;92.70;;;;;;10503596;28;20206;-82
2023/07/01 18:12:31;;;;;;;2.77;2.57;;;22.90;92.60;;;;;;10525818;28;20332;-84
2023/07/01 18:17:33;;;;;;;2.60;2.50;;;22.90;94.00;;;;;;10517256;28;20205;-84
2023/07/01 18:22:37;;;;;;;2.57;2.37;;;22.80;94.50;;;;;;10504580;28;20336;-82
2023/07/01 18:27:39;;;;;;;2.10;2.00;;;22.80;94.50;;;;;;10504206;28;20204;-84
2023/07/01 18:32:41;;;;;;;4.50;3.90;;;22.70;95.00;;;;;;10506717;28;20221;-84
2023/07/01 18:37:46;;;;;;;2.80;2.60;;;22.70;95.70;;;;;;10486941;28;20209;-84
2023/07/01 18:42:48;;;;;;;3.37;3.17;;;22.70;95.20;;;;;;10504066;28;20255;-84
2023/07/01 18:47:50;;;;;;;2.30;2.20;;;22.60;94.60;;;;;;10483931;28;20247;-83
2023/07/01 18:52:54;;;;;;;3.10;2.30;;;22.50;94.30;;;;;;10490632;28;20221;-84
2023/07/01 18:57:56;;;;;;;2.17;2.07;;;22.40;94.20;;;;;;10466121;28;20217;-81
2023/07/01 19:02:58;;;;;;;2.20;2.10;;;22.40;93.70;;;;;;10503564;28;20712;-84
2023/07/01 19:08:02;;;;;;;2.20;2.10;;;22.40;93.80;;;;;;10505944;28;20197;-83
2023/07/01 19:13:04;;;;;;;2.23;2.03;;;22.40;94.00;;;;;;10467045;28;20585;-84
2023/07/01 19:18:07;;;;;;;1.50;1.40;;;22.30;93.50;;;;;;10502312;28;20258;-84
2023/07/01 19:23:11;;;;;;;1.77;1.67;;;22.40;94.10;;;;;;10506863;28;20221;-82
2023/07/01 19:28:16;;;;;;;2.10;1.90;;;22.30;92.70;;;;;;10514105;28;20295;-84
2023/07/01 19:33:19;;;;;;;2.00;1.90;;;22.30;92.70;;;;;;10496634;28;20247;-82
2023/07/01 19:38:22;;;;;;;1.90;1.80;;;22.20;92.70;;;;;;10508144;28;20197;-82
2023/07/01 19:43:24;;;;;;;1.47;1.37;;;22.20;92.70;;;;;;10524239;28;20233;-84
2023/07/01 19:48:26;;;;;;;3.03;2.67;;;22.10;92.60;;;;;;10508060;28;20277;-79
2023/07/01 19:53:30;;;;;;;2.50;1.80;;;22.10;92.70;;;;;;10516848;28;20259;-83
2023/07/01 19:58:32;;;;;;;2.37;2.27;;;22.10;92.60;;;;;;10507895;28;20650;-82
2023/07/01 20:03:34;;;;;;;1.70;1.60;;;22.00;92.80;;;;;;10502528;28;20229;-83
2023/07/01 20:08:38;;;;;;;2.83;2.63;;;22.00;93.40;;;;;;10467964;28;20202;-83
2023/07/01 20:13:40;;;;;;;2.20;2.10;;;22.00;93.40;;;;;;10496298;28;20229;-82
2023/07/01 20:18:42;;;;;;;2.00;1.90;;;22.00;93.00;;;;;;10498662;28;20280;-83
2023/07/01 20:23:46;;;;;;;2.03;1.93;;;22.00;93.30;;;;;;10489369;28;20508;-84
2023/07/01 20:28:48;;;;;;;3.03;2.83;;;22.00;93.40;;;;;;10481333;28;20205;-82
2023/07/01 20:33:50;;;;;;;2.50;2.40;;;22.00;93.20;;;;;;10499358;28;20229;-81
2023/07/01 20:38:53;;;;;;;2.83;2.40;;;22.00;93.40;;;;;;10485937;28;20193;-82
2023/07/01 20:43:55;;;;;;;2.27;2.07;;;22.10;93.40;;;;;;10507749;28;20271;-82
2023/07/01 20:48:58;;;;;;;2.20;2.10;;;22.10;93.10;;;;;;10496341;28;20213;-84
2023/07/01 20:54:01;;;;;;;2.33;2.23;;;22.10;93.00;;;;;;10510733;28;20381;-84
2023/07/01 20:59:05;;;;;;;2.20;2.07;;;22.00;93.20;;;;;;10508658;28;20688;-82
2023/07/01 21:04:07;;;;;;;2.30;2.10;;;22.00;93.20;;;;;;10511333;28;20220;-84
2023/07/01 21:09:15;;;;;;;2.30;2.20;;;21.90;93.20;;;;;;10492130;28;20312;-83
2023/07/01 21:14:18;;;;;;;3.00;2.70;;;21.90;93.60;;;;;;10507157;28;20220;-84
2023/07/01 21:19:20;;;;;;;2.37;2.27;;;21.80;93.80;;;;;;10509775;28;20205;-82
2023/07/01 21:24:23;;;;;;;2.23;2.13;;;21.80;93.90;;;;;;10508700;28;20590;-84
2023/07/01 21:29:26;;;;;;;2.77;2.57;;;21.70;94.10;;;;;;10505129;28;20243;-83
2023/07/01 21:34:30;;;;;;;2.60;2.50;;;21.70;94.20;;;;;;10507203;28;20245;-80
2023/07/01 21:39:34;;;;;;;2.10;2.00;;;21.60;94.70;;;;;;10506820;28;20263;-84
2023/07/01 21:44:37;;;;;;;2.87;2.67;;;21.50;95.20;;;;;;10499961;28;20225;-83
2023/07/01 21:49:39;;;;;;;2.83;2.63;;;21.50;95.20;;;;;;10501155;28;20231;-83
2023/07/01 21:54:42;;;;;;;2.80;2.60;;;21.50;95.00;;;;;;10492736;28;20319;-83
2023/07/01 21:59:44;;;;;;;2.63;2.50;;;21.40;94.80;;;;;;10506830;28;20205;-84
2023/07/01 22:04:48;;;;;;;4.20;3.30;;;21.40;95.40;;;;;;10490258;28;20197;-83
2023/07/01 22:09:51;;;;;;;2.53;2.33;;;21.40;95.00;;;;;;10514339;28;20201;-82
2023/07/01 22:14:53;;;;;;;2.93;2.73;;;21.40;95.10;;;;;;10496993;28;20217;-84
2023/07/01 22:19:56;;;;;;;2.87;2.67;;;21.40;95.30;;;;;;10493592;28;20213;-83
2023/07/01 22:24:59;;;;;;;2.70;2.27;;;21.50;95.50;;;;;;10473427;28;20286;-84
2023/07/01 22:30:02;;;;;;;2.70;2.50;;;21.50;95.50;;;;;;10512087;28;20251;-83
2023/07/01 22:35:04;;;;;;;3.07;2.87;;;21.50;95.70;;;;;;10493698;28;20205;-84
2023/07/01 22:40:09;;;;;;;2.67;2.50;;;21.60;95.80;;;;;;10511105;28;20237;-84
2023/07/01 22:45:11;;;;;;;2.47;2.37;;;21.60;96.00;;;;;;10495359;28;20238;-84
2023/07/01 22:50:15;;;;;;;3.00;2.80;;;21.70;96.60;;;;;;10481181;28;20224;-85
2023/07/01 22:55:20;;;;;;;5.10;3.60;;;21.70;97.30;;;;;;10511125;28;20583;-84
2023/07/01 23:00:22;;;;;;;4.73;4.43;;;21.70;98.40;;;;;;10507335;28;20282;-84
2023/07/01 23:05:24;;;;;;;5.50;5.20;;;21.50;99.90;;;;;;10509353;28;20266;-86
2023/07/01 23:10:28;;;;;;;6.00;5.60;;;21.00;99.90;;;;;;10508413;28;20244;-84
2023/07/01 23:15:30;;;;;;;5.77;5.47;;;20.50;99.90;;;;;;10506921;28;20299;-83
2023/07/01 23:20:32;;;;;;;6.70;6.20;;;20.10;99.90;;;;;;10505912;28;20225;-85
2023/07/01 23:25:36;;;;;;;6.43;5.97;;;19.80;99.90;;;;;;10487719;28;20404;-85
2023/07/01 23:30:39;;;;;;;6.83;6.43;;;19.60;99.90;;;;;;10505433;28;20217;-85
2023/07/01 23:35:41;;;;;;;6.70;6.20;;;19.50;99.90;;;;;;10489686;28;20267;-86
2023/07/01 23:40:44;;;;;;;5.37;5.07;;;19.40;99.90;;;;;;10504088;28;20213;-86
2023/07/01 23:45:47;;;;;;;5.70;5.30;;;19.30;99.90;;;;;;10487108;28;20193;-81
2023/07/01 23:50:49;;;;;;;7.80;5.00;;;19.30;99.90;;;;;;10507189;28;20221;-83
2023/07/01 23:55:52;;;;;;;5.43;5.03;;;19.40;99.90;;;;;;10507919;28;20221;-81
